createdAt,value
2018-10-12T00:00:40.980Z,1.30
2018-10-12T00:03:07.751Z,1.30
2018-10-12T00:05:34.489Z,1.30
2018-10-12T00:08:01.229Z,1.00
2018-10-12T00:10:28.120Z,1.27
2018-10-12T00:12:54.948Z,1.23
2018-10-12T00:15:21.782Z,1.03
2018-10-12T00:17:48.628Z,1.10
2018-10-12T00:20:15.610Z,1.43
2018-10-12T00:22:42.395Z,1.23
2018-10-12T00:25:09.164Z,1.30
2018-10-12T00:27:35.995Z,1.20
2018-10-12T00:30:02.756Z,1.07
2018-10-12T00:32:29.697Z,1.10
2018-10-12T00:34:56.522Z,1.10
2018-10-12T00:37:23.264Z,1.47
2018-10-12T00:39:50.063Z,1.20
2018-10-12T00:42:17.261Z,1.07
2018-10-12T00:44:44.148Z,0.90
2018-10-12T00:47:10.900Z,1.30
2018-10-12T00:49:37.683Z,0.97
2018-10-12T00:52:04.504Z,1.10
2018-10-12T00:54:31.600Z,1.17
2018-10-12T00:56:58.371Z,1.30
2018-10-12T00:59:25.136Z,1.03
2018-10-12T01:01:51.880Z,1.20
2018-10-12T01:04:18.823Z,1.00
2018-10-12T01:06:45.660Z,0.90
2018-10-12T01:09:12.861Z,0.90
2018-10-12T01:11:39.656Z,1.10
2018-10-12T01:14:06.277Z,1.23
2018-10-12T01:16:33.023Z,1.10
2018-10-12T01:18:59.713Z,1.13
2018-10-12T01:21:26.369Z,1.00
2018-10-12T01:23:53.143Z,1.00
2018-10-12T01:26:20.321Z,0.83
2018-10-12T01:28:54.628Z,1.10
2018-10-12T01:31:21.413Z,1.13
2018-10-12T01:33:48.152Z,1.00
2018-10-12T01:36:14.909Z,0.90
2018-10-12T01:38:41.698Z,0.80
2018-10-12T01:41:08.434Z,1.57
2018-10-12T01:43:35.144Z,1.13
2018-10-12T01:46:01.958Z,0.70
2018-10-12T01:48:28.718Z,1.30
2018-10-12T01:50:55.461Z,0.97
2018-10-12T01:53:22.192Z,1.00
2018-10-12T01:55:48.964Z,1.20
2018-10-12T01:58:15.714Z,0.93
2018-10-12T02:00:42.492Z,0.83
2018-10-12T02:03:09.316Z,1.10
2018-10-12T02:05:36.049Z,1.00
2018-10-12T02:08:02.710Z,0.90
2018-10-12T02:10:29.460Z,0.80
2018-10-12T02:12:56.236Z,0.90
2018-10-12T02:15:22.976Z,0.70
2018-10-12T02:17:49.709Z,0.83
2018-10-12T02:20:16.417Z,0.80
2018-10-12T02:22:43.164Z,0.90
2018-10-12T02:25:10.573Z,1.30
2018-10-12T02:27:37.312Z,0.83
2018-10-12T02:30:04.150Z,0.90
2018-10-12T02:32:30.954Z,0.87
2018-10-12T02:34:57.706Z,0.80
2018-10-12T02:37:24.414Z,1.10
2018-10-12T02:39:51.199Z,1.00
2018-10-12T02:42:20.889Z,0.73
2018-10-12T02:44:47.700Z,1.00
2018-10-12T02:47:14.377Z,0.87
2018-10-12T02:49:41.108Z,1.00
2018-10-12T02:52:07.808Z,0.70
2018-10-12T02:54:34.510Z,1.20
2018-10-12T02:57:01.194Z,0.70
2018-10-12T02:59:29.707Z,1.00
2018-10-12T03:01:56.362Z,1.13
2018-10-12T03:04:23.131Z,1.00
2018-10-12T03:06:50.025Z,1.10
2018-10-12T03:09:16.795Z,0.97
2018-10-12T03:11:47.131Z,0.80
2018-10-12T03:14:14.059Z,0.87
2018-10-12T03:19:21.557Z,0.93
2018-10-12T03:21:59.649Z,1.20
2018-10-12T03:24:42.830Z,1.07
2018-10-12T03:27:14.589Z,1.20
2018-10-12T03:29:47.287Z,0.93
2018-10-12T03:32:15.135Z,1.20
2018-10-12T03:34:42.061Z,1.00
2018-10-12T03:37:08.802Z,1.30
2018-10-12T03:39:36.191Z,0.93
2018-10-12T03:42:02.959Z,1.07
2018-10-12T03:44:29.785Z,1.10
2018-10-12T03:46:56.508Z,1.10
2018-10-12T03:49:24.708Z,1.00
2018-10-12T03:51:51.504Z,1.17
2018-10-12T03:54:19.074Z,1.23
2018-10-12T03:56:46.760Z,1.50
2018-10-12T03:59:14.311Z,1.10
2018-10-12T04:01:41.044Z,1.20
2018-10-12T04:04:08.662Z,1.17
2018-10-12T04:06:39.008Z,1.20
2018-10-12T04:09:11.013Z,1.20
2018-10-12T04:11:39.825Z,1.33
2018-10-12T04:14:06.552Z,1.10
2018-10-12T04:16:33.259Z,0.90
2018-10-12T04:19:00.001Z,1.20
2018-10-12T04:21:29.065Z,1.40
2018-10-12T04:23:55.756Z,1.17
2018-10-12T04:26:23.015Z,1.43
2018-10-12T04:28:49.716Z,1.50
2018-10-12T04:31:16.458Z,1.40
2018-10-12T04:33:43.310Z,1.23
2018-10-12T04:36:10.127Z,1.43
2018-10-12T04:38:38.712Z,1.30
2018-10-12T04:41:07.093Z,1.77
2018-10-12T04:43:34.054Z,1.63
2018-10-12T04:46:01.464Z,1.53
2018-10-12T04:48:29.166Z,1.43
2018-10-12T04:50:56.191Z,1.50
2018-10-12T04:53:23.236Z,2.00
2018-10-12T04:55:49.938Z,1.80
2018-10-12T04:58:16.766Z,1.77
2018-10-12T05:00:43.610Z,1.80
2018-10-12T05:03:14.135Z,1.70
2018-10-12T05:05:41.360Z,1.53
2018-10-12T05:08:08.027Z,1.60
2018-10-12T05:10:34.722Z,1.60
2018-10-12T05:13:01.538Z,2.00
2018-10-12T05:15:28.240Z,1.77
2018-10-12T05:17:54.962Z,1.97
2018-10-12T05:20:21.726Z,1.73
2018-10-12T05:22:48.424Z,2.00
2018-10-12T05:25:15.206Z,1.60
2018-10-12T05:30:47.973Z,1.80
2018-10-12T05:33:14.640Z,1.97
2018-10-12T05:35:41.357Z,1.90
2018-10-12T05:38:09.788Z,2.17
2018-10-12T05:40:36.520Z,1.67
2018-10-12T05:43:03.503Z,2.10
2018-10-12T05:45:30.283Z,1.73
2018-10-12T05:47:57.048Z,1.97
2018-10-12T05:50:24.083Z,2.03
2018-10-12T05:52:50.840Z,2.40
2018-10-12T05:55:17.617Z,2.07
2018-10-12T05:57:44.521Z,2.17
2018-10-12T06:00:11.793Z,2.40
2018-10-12T06:02:38.791Z,2.27
2018-10-12T06:05:06.042Z,2.33
2018-10-12T06:07:34.057Z,2.03
2018-10-12T06:10:01.549Z,1.87
2018-10-12T06:12:29.181Z,2.37
2018-10-12T06:14:56.095Z,2.00
2018-10-12T06:17:22.796Z,2.37
2018-10-12T06:19:49.527Z,2.20
2018-10-12T06:22:16.834Z,1.90
2018-10-12T06:24:43.619Z,2.27
2018-10-12T06:27:10.401Z,2.20
2018-10-12T06:29:38.037Z,2.33
2018-10-12T06:32:05.039Z,2.30
2018-10-12T06:34:32.706Z,2.50
2018-10-12T06:36:59.539Z,2.33
2018-10-12T06:39:26.408Z,2.43
2018-10-12T06:41:53.189Z,2.53
2018-10-12T06:44:20.696Z,2.30
2018-10-12T06:46:47.595Z,2.20
2018-10-12T06:49:14.451Z,2.93
2018-10-12T06:51:42.217Z,2.33
2018-10-12T06:54:09.249Z,2.43
2018-10-12T06:56:37.116Z,2.17
2018-10-12T06:59:03.869Z,2.80
2018-10-12T07:01:30.716Z,2.67
2018-10-12T07:03:58.309Z,2.93
2018-10-12T07:06:25.256Z,2.33
2018-10-12T07:08:52.156Z,2.37
2018-10-12T07:11:19.046Z,2.57
2018-10-12T07:13:46.233Z,3.00
2018-10-12T07:16:13.004Z,2.70
2018-10-12T07:18:41.737Z,3.00
2018-10-12T07:21:08.768Z,2.40
2018-10-12T07:23:35.439Z,3.00
2018-10-12T07:26:02.248Z,2.70
2018-10-12T07:28:28.972Z,2.80
2018-10-12T07:30:56.089Z,2.40
2018-10-12T07:33:24.920Z,2.60
2018-10-12T07:35:52.852Z,2.73
2018-10-12T07:38:19.604Z,2.30
2018-10-12T07:40:47.341Z,2.90
2018-10-12T07:43:14.063Z,2.67
2018-10-12T07:45:40.726Z,3.33
2018-10-12T07:48:07.418Z,2.50
2018-10-12T07:50:34.447Z,3.00
2018-10-12T07:53:01.131Z,2.90
2018-10-12T07:55:27.798Z,2.60
2018-10-12T07:57:54.582Z,2.70
2018-10-12T08:00:21.344Z,2.77
2018-10-12T08:02:48.009Z,2.73
2018-10-12T08:05:15.819Z,3.00
2018-10-12T08:07:42.560Z,2.13
2018-10-12T08:10:09.316Z,2.80
2018-10-12T08:12:36.483Z,2.80
2018-10-12T08:15:03.198Z,2.77
2018-10-12T08:17:30.625Z,2.73
2018-10-12T08:19:57.397Z,3.30
2018-10-12T08:22:24.153Z,2.97
2018-10-12T08:24:53.669Z,3.07
2018-10-12T08:27:25.023Z,2.90
2018-10-12T08:29:51.789Z,3.13
2018-10-12T08:32:18.917Z,3.40
2018-10-12T08:34:45.792Z,3.07
2018-10-12T08:37:12.953Z,3.13
2018-10-12T08:39:39.597Z,2.60
2018-10-12T08:42:06.491Z,3.30
2018-10-12T08:44:33.372Z,3.03
2018-10-12T08:47:00.105Z,2.70
2018-10-12T08:49:29.084Z,2.60
2018-10-12T08:51:55.805Z,3.07
2018-10-12T08:54:22.573Z,3.20
2018-10-12T08:56:49.281Z,3.07
2018-10-12T08:59:16.187Z,2.80
2018-10-12T09:01:42.896Z,2.83
2018-10-12T09:04:10.163Z,3.13
2018-10-12T09:06:36.838Z,3.70
2018-10-12T09:09:04.846Z,3.60
2018-10-12T09:11:31.596Z,3.17
2018-10-12T09:13:58.333Z,3.57
2018-10-12T09:16:25.375Z,3.80
2018-10-12T09:18:52.011Z,3.50
2018-10-12T09:21:19.210Z,3.83
2018-10-12T09:23:46.044Z,4.27
2018-10-12T09:26:13.249Z,4.07
2018-10-12T09:28:39.924Z,4.13
2018-10-12T09:31:07.046Z,3.70
2018-10-12T09:33:33.747Z,3.53
2018-10-12T09:36:00.961Z,3.23
2018-10-12T09:38:27.815Z,3.70
2018-10-12T09:40:54.666Z,3.13
2018-10-12T09:43:21.427Z,3.63
2018-10-12T09:45:48.221Z,3.23
2018-10-12T09:48:15.100Z,3.80
2018-10-12T09:50:42.531Z,3.57
2018-10-12T09:53:09.964Z,2.97
2018-10-12T09:55:36.684Z,3.30
2018-10-12T09:58:03.444Z,3.10
2018-10-12T10:00:35.870Z,3.30
2018-10-12T10:03:08.357Z,3.03
2018-10-12T10:05:35.741Z,3.43
2018-10-12T10:08:03.148Z,2.87
2018-10-12T10:10:29.959Z,2.93
2018-10-12T10:12:56.792Z,3.07
2018-10-12T10:15:24.045Z,2.97
2018-10-12T10:17:51.189Z,3.00
2018-10-12T10:20:18.007Z,2.73
2018-10-12T10:22:45.533Z,2.70
2018-10-12T10:25:12.412Z,2.67
2018-10-12T10:27:38.963Z,2.40
2018-10-12T10:30:05.671Z,2.37
2018-10-12T10:32:34.114Z,2.60
2018-10-12T10:35:01.786Z,2.30
2018-10-12T10:37:28.451Z,2.30
2018-10-12T10:39:55.120Z,2.40
2018-10-12T10:42:22.017Z,2.30
2018-10-12T10:44:48.821Z,2.07
2018-10-12T10:47:16.205Z,2.30
2018-10-12T10:49:42.907Z,2.30
2018-10-12T10:52:09.714Z,2.27
2018-10-12T10:54:36.469Z,2.20
2018-10-12T10:57:05.355Z,2.50
2018-10-12T10:59:33.471Z,1.93
2018-10-12T11:02:00.376Z,2.20
2018-10-12T11:04:27.707Z,2.23
2018-10-12T11:06:54.470Z,2.37
2018-10-12T11:09:21.372Z,2.00
2018-10-12T11:11:48.697Z,2.30
2018-10-12T11:14:15.386Z,2.20
2018-10-12T11:16:42.218Z,2.10
2018-10-12T11:19:08.919Z,2.10
2018-10-12T11:21:35.630Z,1.80
2018-10-12T11:24:02.392Z,2.30
2018-10-12T11:26:29.168Z,2.43
2018-10-12T11:28:55.988Z,2.13
2018-10-12T11:31:22.668Z,2.03
2018-10-12T11:33:49.622Z,2.20
2018-10-12T11:36:16.410Z,2.13
2018-10-12T11:38:43.330Z,2.37
2018-10-12T11:41:10.019Z,2.40
2018-10-12T11:43:38.147Z,2.10
2018-10-12T11:46:05.020Z,1.83
2018-10-12T11:48:31.729Z,2.30
2018-10-12T11:50:59.159Z,2.10
2018-10-12T11:53:25.980Z,1.83
2018-10-12T11:55:52.755Z,2.20
2018-10-12T11:58:19.515Z,1.50
2018-10-12T12:00:46.391Z,1.80
2018-10-12T12:03:13.230Z,1.70
2018-10-12T12:05:40.167Z,1.73
2018-10-12T12:08:07.902Z,2.10
2018-10-12T12:10:34.628Z,1.97
2018-10-12T12:13:01.564Z,1.93
2018-10-12T12:15:28.314Z,1.83
2018-10-12T12:17:55.463Z,2.03
2018-10-12T12:20:22.287Z,2.00
2018-10-12T12:22:49.090Z,1.80
2018-10-12T12:25:15.778Z,2.10
2018-10-12T12:27:42.718Z,2.13
2018-10-12T12:30:09.398Z,1.80
2018-10-12T12:32:36.142Z,1.80
2018-10-12T12:35:03.209Z,1.77
2018-10-12T12:37:29.829Z,1.80
2018-10-12T12:39:56.522Z,2.33
2018-10-12T12:42:23.271Z,1.90
2018-10-12T12:44:50.099Z,1.70
2018-10-12T12:47:16.826Z,1.87
2018-10-12T12:49:43.771Z,2.17
2018-10-12T12:52:10.855Z,1.80
2018-10-12T12:54:37.589Z,2.27
2018-10-12T12:57:04.303Z,1.93
2018-10-12T12:59:31.140Z,1.87
2018-10-12T13:01:57.895Z,1.90
2018-10-12T13:04:24.607Z,1.80
2018-10-12T13:06:52.074Z,1.93
2018-10-12T13:09:18.805Z,2.10
2018-10-12T13:11:46.670Z,2.03
2018-10-12T13:14:13.403Z,1.80
2018-10-12T13:16:41.003Z,1.93
2018-10-12T13:19:07.887Z,2.10
2018-10-12T13:21:35.226Z,1.87
2018-10-12T13:24:02.089Z,1.70
2018-10-12T13:26:28.833Z,1.73
2018-10-12T13:28:55.748Z,1.60
2018-10-12T13:31:22.588Z,1.70
2018-10-12T13:33:49.435Z,1.57
2018-10-12T13:36:16.182Z,1.60
2018-10-12T13:38:43.069Z,2.00
2018-10-12T13:41:09.901Z,1.60
2018-10-12T13:43:36.663Z,1.50
2018-10-12T13:46:03.497Z,1.90
2018-10-12T13:48:30.185Z,1.90
2018-10-12T13:50:59.162Z,1.80
2018-10-12T13:53:25.892Z,1.80
2018-10-12T13:55:53.163Z,2.10
2018-10-12T13:58:19.924Z,1.80
2018-10-12T14:00:46.637Z,2.00
2018-10-12T14:03:13.333Z,1.60
2018-10-12T14:05:40.985Z,1.80
2018-10-12T14:08:07.765Z,1.80
2018-10-12T14:10:34.508Z,2.23
2018-10-12T14:13:01.224Z,1.60
2018-10-12T14:15:28.618Z,1.67
2018-10-12T14:17:55.400Z,1.90
2018-10-12T14:20:22.185Z,1.63
2018-10-12T14:22:48.962Z,2.07
2018-10-12T14:25:15.922Z,1.87
2018-10-12T14:27:43.377Z,1.70
2018-10-12T14:30:10.133Z,1.93
2018-10-12T14:32:37.222Z,2.07
2018-10-12T14:35:04.037Z,2.27
2018-10-12T14:37:30.745Z,1.93
2018-10-12T14:39:57.418Z,1.90
2018-10-12T14:42:24.133Z,2.30
2018-10-12T14:44:50.887Z,2.10
2018-10-12T14:47:17.623Z,2.17
2018-10-12T14:49:44.513Z,2.53
2018-10-12T14:52:11.358Z,2.20
2018-10-12T14:54:38.302Z,2.90
2018-10-12T14:57:09.550Z,2.20
2018-10-12T14:59:36.365Z,2.33
2018-10-12T15:02:03.833Z,2.00
2018-10-12T15:04:30.759Z,2.60
2018-10-12T15:06:57.444Z,2.63
2018-10-12T15:09:24.266Z,2.70
2018-10-12T15:11:51.160Z,2.47
2018-10-12T15:14:17.930Z,2.73
2018-10-12T15:16:44.799Z,2.80
2018-10-12T15:19:11.532Z,2.50
2018-10-12T15:21:38.320Z,3.10
2018-10-12T15:24:05.119Z,2.97
2018-10-12T15:26:31.997Z,2.20
2018-10-12T15:28:58.913Z,2.53
2018-10-12T15:31:25.661Z,2.93
2018-10-12T15:33:52.535Z,2.77
2018-10-12T15:36:19.476Z,2.60
2018-10-12T15:38:46.416Z,2.70
2018-10-12T15:41:13.158Z,2.70
2018-10-12T15:43:39.866Z,2.70
2018-10-12T15:46:06.654Z,2.73
2018-10-12T15:48:33.511Z,2.50
2018-10-12T15:51:00.385Z,2.97
2018-10-12T15:53:27.179Z,2.83
2018-10-12T15:55:53.873Z,2.70
2018-10-12T15:58:20.693Z,2.70
2018-10-12T16:00:47.509Z,2.80
2018-10-12T16:03:14.920Z,2.13
2018-10-12T16:05:41.682Z,2.73
2018-10-12T16:08:08.384Z,2.93
2018-10-12T16:10:37.409Z,3.30
2018-10-12T16:13:04.205Z,2.20
2018-10-12T16:15:31.139Z,2.60
2018-10-12T16:17:57.978Z,2.93
2018-10-12T16:20:24.690Z,2.77
2018-10-12T16:22:51.673Z,2.43
2018-10-12T16:25:18.436Z,2.50
2018-10-12T16:27:45.201Z,2.93
2018-10-12T16:30:11.883Z,2.70
2018-10-12T16:32:38.722Z,2.50
2018-10-12T16:35:05.394Z,2.37
2018-10-12T16:37:32.071Z,2.63
2018-10-12T16:39:58.864Z,3.13
2018-10-12T16:42:25.676Z,3.00
2018-10-12T16:44:52.985Z,2.97
2018-10-12T16:47:19.845Z,2.43
2018-10-12T16:49:46.523Z,2.80
2018-10-12T16:52:13.244Z,2.73
2018-10-12T16:54:40.019Z,2.87
2018-10-12T16:57:06.756Z,2.63
2018-10-12T16:59:33.413Z,2.83
2018-10-12T17:02:00.098Z,2.90
2018-10-12T17:04:26.929Z,3.00
2018-10-12T17:06:53.680Z,2.80
2018-10-12T17:09:20.365Z,2.57
2018-10-12T17:11:47.074Z,3.00
2018-10-12T17:14:13.796Z,3.03
2018-10-12T17:16:40.760Z,2.40
2018-10-12T17:19:09.004Z,2.60
2018-10-12T17:21:36.678Z,2.83
2018-10-12T17:24:03.507Z,2.73
2018-10-12T17:26:30.204Z,3.00
2018-10-12T17:28:56.939Z,3.00
2018-10-12T17:31:23.771Z,2.23
2018-10-12T17:33:50.469Z,2.63
2018-10-12T17:36:17.252Z,2.50
2018-10-12T17:38:43.990Z,2.70
2018-10-12T17:41:10.705Z,2.50
2018-10-12T17:43:37.413Z,3.03
2018-10-12T17:46:04.156Z,2.60
2018-10-12T17:48:30.895Z,2.90
2018-10-12T17:50:57.589Z,2.70
2018-10-12T17:53:24.332Z,2.77
2018-10-12T17:55:51.116Z,2.30
2018-10-12T17:58:17.889Z,2.50
2018-10-12T18:00:44.648Z,2.10
2018-10-12T18:03:11.429Z,2.80
2018-10-12T18:05:38.163Z,2.83
2018-10-12T18:08:04.899Z,2.43
2018-10-12T18:10:31.673Z,2.50
2018-10-12T18:12:58.384Z,2.37
2018-10-12T18:15:25.305Z,2.80
2018-10-12T18:17:52.014Z,2.47
2018-10-12T18:20:18.792Z,2.50
2018-10-12T18:22:45.503Z,2.63
2018-10-12T18:25:12.212Z,2.17
2018-10-12T18:27:38.981Z,2.63
2018-10-12T18:30:05.753Z,2.77
2018-10-12T18:32:32.590Z,2.43
2018-10-12T18:34:59.368Z,2.40
2018-10-12T18:37:26.062Z,2.47
2018-10-12T18:39:52.788Z,2.70
2018-10-12T18:42:19.703Z,2.77
2018-10-12T18:44:46.414Z,2.80
2018-10-12T18:47:13.239Z,2.73
2018-10-12T18:49:39.997Z,2.63
2018-10-12T18:52:06.762Z,2.83
2018-10-12T18:54:33.526Z,2.50
2018-10-12T18:57:00.260Z,3.03
2018-10-12T18:59:27.012Z,2.73
2018-10-12T19:01:53.725Z,2.80
2018-10-12T19:04:20.467Z,3.00
2018-10-12T19:06:47.292Z,2.77
2018-10-12T19:09:14.011Z,2.87
2018-10-12T19:11:41.104Z,2.43
2018-10-12T19:14:07.835Z,2.63
2018-10-12T19:16:34.702Z,3.03
2018-10-12T19:19:01.697Z,2.47
2018-10-12T19:21:29.434Z,2.80
2018-10-12T19:23:56.475Z,2.50
2018-10-12T19:26:23.169Z,2.57
2018-10-12T19:28:49.944Z,2.53
2018-10-12T19:31:16.728Z,2.83
2018-10-12T19:33:43.439Z,2.93
2018-10-12T19:36:10.207Z,2.80
2018-10-12T19:38:36.967Z,2.90
2018-10-12T19:41:03.785Z,2.90
2018-10-12T19:43:30.561Z,2.97
2018-10-12T19:45:57.289Z,2.90
2018-10-12T19:48:24.105Z,3.00
2018-10-12T19:50:50.957Z,2.97
2018-10-12T19:53:17.742Z,2.73
2018-10-12T19:55:44.503Z,2.80
2018-10-12T19:58:11.247Z,2.83
2018-10-12T20:00:38.373Z,2.70
2018-10-12T20:03:05.182Z,3.07
2018-10-12T20:05:31.857Z,2.77
2018-10-12T20:07:58.665Z,2.50
2018-10-12T20:10:25.481Z,2.73
2018-10-12T20:12:52.525Z,2.63
2018-10-12T20:15:19.243Z,2.57
2018-10-12T20:17:46.206Z,2.70
2018-10-12T20:20:12.745Z,2.87
2018-10-12T20:22:39.462Z,3.13
2018-10-12T20:25:06.134Z,2.33
2018-10-12T20:27:33.040Z,2.37
2018-10-12T20:30:00.272Z,2.60
2018-10-12T20:32:27.287Z,2.60
2018-10-12T20:34:54.796Z,2.80
2018-10-12T20:37:21.803Z,2.40
2018-10-12T20:39:48.711Z,2.50
2018-10-12T20:42:15.503Z,2.70
2018-10-12T20:44:42.641Z,3.33
2018-10-12T20:47:10.022Z,2.80
2018-10-12T20:49:36.779Z,2.37
2018-10-12T20:52:03.660Z,2.33
2018-10-12T20:54:30.777Z,2.67
2018-10-12T20:56:57.712Z,2.57
2018-10-12T20:59:25.066Z,2.57
2018-10-12T21:01:51.796Z,2.70
2018-10-12T21:04:18.593Z,2.30
2018-10-12T21:06:45.348Z,2.60
2018-10-12T21:09:12.080Z,2.37
2018-10-12T21:11:38.876Z,2.33
2018-10-12T21:14:05.557Z,2.60
2018-10-12T21:16:32.231Z,2.20
2018-10-12T21:18:58.970Z,2.33
2018-10-12T21:21:25.728Z,2.33
2018-10-12T21:23:52.540Z,2.30
2018-10-12T21:26:19.294Z,2.57
2018-10-12T21:28:46.253Z,2.77
2018-10-12T21:31:13.334Z,2.70
2018-10-12T21:33:40.146Z,2.90
2018-10-12T21:36:06.942Z,2.40
2018-10-12T21:38:34.160Z,2.60
2018-10-12T21:41:00.840Z,2.57
2018-10-12T21:43:27.559Z,2.30
2018-10-12T21:45:54.361Z,3.10
2018-10-12T21:48:21.107Z,2.23
2018-10-12T21:50:48.126Z,2.50
2018-10-12T21:53:15.299Z,2.47
2018-10-12T21:55:42.093Z,2.50
2018-10-12T21:58:08.935Z,2.80
2018-10-12T22:00:35.859Z,2.80
2018-10-12T22:03:02.843Z,2.70
2018-10-12T22:05:29.912Z,2.57
2018-10-12T22:07:56.955Z,2.50
2018-10-12T22:10:24.140Z,2.70
2018-10-12T22:12:51.387Z,2.40
2018-10-12T22:15:18.721Z,3.00
2018-10-12T22:17:45.643Z,2.37
2018-10-12T22:20:12.669Z,2.47
2018-10-12T22:22:39.609Z,2.97
2018-10-12T22:26:36.328Z,2.80
2018-10-12T22:29:03.274Z,2.20
2018-10-12T22:31:29.983Z,2.80
2018-10-12T22:33:56.725Z,2.93
2018-10-12T22:36:23.532Z,2.50
2018-10-12T22:38:50.275Z,2.43
2018-10-12T22:41:17.000Z,2.30
2018-10-12T22:43:43.855Z,2.63
2018-10-12T22:46:10.572Z,2.40
2018-10-12T22:48:37.568Z,2.33
2018-10-12T22:51:04.544Z,2.43
2018-10-12T22:53:31.253Z,2.77
2018-10-12T22:55:58.025Z,2.57
2018-10-12T22:58:24.992Z,2.53
2018-10-12T23:00:51.862Z,2.60
2018-10-12T23:03:18.718Z,2.53
2018-10-12T23:05:45.440Z,2.77
2018-10-12T23:08:12.220Z,2.67
2018-10-12T23:10:39.130Z,2.60
2018-10-12T23:13:06.047Z,2.73
2018-10-12T23:15:32.853Z,2.30
2018-10-12T23:17:59.639Z,2.53
2018-10-12T23:20:26.407Z,2.30
2018-10-12T23:22:53.147Z,2.60
2018-10-12T23:25:19.920Z,2.37
2018-10-12T23:27:46.810Z,2.63
2018-10-12T23:30:13.574Z,2.53
2018-10-12T23:32:40.346Z,2.70
2018-10-12T23:35:07.378Z,2.40
2018-10-12T23:37:34.190Z,2.37
2018-10-12T23:40:00.977Z,2.50
2018-10-12T23:42:27.654Z,2.03
2018-10-12T23:44:54.422Z,2.70
2018-10-12T23:47:21.860Z,2.57
2018-10-12T23:49:48.698Z,2.27
2018-10-12T23:52:15.434Z,2.97
2018-10-12T23:54:42.375Z,2.43
2018-10-12T23:57:09.183Z,2.40
2018-10-12T23:59:35.923Z,2.23
